Strona główna
METAR-TAF:

METAR-TAF

Lotnisko :

York Airport

York, Pensylwania, Stany Zjednoczone

Szerokość geograficzna: 39-55-10N, Długość geograficzna: 076-52-37W, wysokość: 146 m

Aktualna obserwacja pogody

Raport powstał 1 godzina i 8 minut temu, godzina 09:53 UTC
Cisza
Temperatura -1°C
Wilgotność 93%
Ciśnienie 1007 hPa
marznąca mgła

METAR: KTHV 190953Z AUTO 00000KT M1/4SM FZFG VV004 M01/M02 A2975 RMK AO2 SLP080 T10111022

czas: 06:01 (11:01 UTC)


TAF: brakujący

Obserwacja i prognoza pogody dla ponad 4000 lotnisk (raport METAR i TAF).

Dostępne stacje oznaczono żółtymi i czerwonymi punktami na mapie.

Najedź kursorem aby zobaczyć nazwę stacji.

Kliknij aby zobaczyć obserwacje i prognozy pogody.

Aby zmienić mapę: kliknij na zielony przycisk z czarnym krzyżykiem, aby powiększyć; na zielony przycisk z myślnikiem, aby pomniejszyć; na zielone strzałki, aby przejść do map sąsiednich.


METAR-TAF: